Time;durP1;ratioP1;P1;durP2;ratioP2;P2;SDS_P1;SDS_P2;PMS_P1;PMS_P2;Temp;Humidity;BMP_temperature;BMP_pressure;BME280_temperature;BME280_humidity;BME280_pressure;Samples;Min_cycle;Max_cycle;Signal;HPM_P1;HPM_P2
2023/08/06 00:00:22;;;;;;;67.57;64.40;;;;;;;19.83;57.45;100236.31;4984577;28;20155;-74
2023/08/06 00:02:49;;;;;;;67.35;64.15;;;;;;;19.82;57.48;100233.88;4987592;28;20038;-73
2023/08/06 00:05:17;;;;;;;66.93;63.63;;;;;;;19.83;57.29;100240.97;4986179;28;20069;-73
2023/08/06 00:07:47;;;;;;;64.53;61.58;;;;;;;19.82;57.54;100240.16;4984922;28;20113;-73
2023/08/06 00:10:12;;;;;;;69.57;66.18;;;;;;;19.81;57.57;100238.56;4984465;28;20029;-73
2023/08/06 00:12:37;;;;;;;67.47;64.28;;;;;;;19.81;57.14;100240.50;4988460;28;20035;-73
2023/08/06 00:15:03;;;;;;;66.57;63.47;;;;;;;19.79;57.52;100229.03;4984690;28;20053;-73
2023/08/06 00:17:28;;;;;;;68.63;65.38;;;;;;;19.79;57.12;100235.31;4985484;28;20118;-73
2023/08/06 00:19:54;;;;;;;66.95;63.83;;;;;;;19.79;57.28;100234.50;4986381;28;20046;-74
2023/08/06 00:22:19;;;;;;;66.18;62.97;;;;;;;19.77;57.46;100229.34;4984603;28;20038;-73
2023/08/06 00:24:45;;;;;;;69.80;66.30;;;;;;;19.77;57.25;100223.84;4987360;28;20523;-73
2023/08/06 00:27:10;;;;;;;70.82;67.50;;;;;;;19.77;57.65;100225.78;4981614;28;20054;-73
2023/08/06 00:29:35;;;;;;;67.82;64.53;;;;;;;19.76;57.55;100215.97;4982274;28;20403;-73
2023/08/06 00:32:01;;;;;;;65.10;62.08;;;;;;;19.75;57.17;100217.06;4984937;28;20038;-74
2023/08/06 00:34:26;;;;;;;69.47;65.95;;;;;;;19.75;57.30;100228.03;4984456;28;20085;-73
2023/08/06 00:36:53;;;;;;;66.93;63.60;;;;;;;19.73;57.75;100222.91;4982744;28;20069;-73
2023/08/06 00:39:19;;;;;;;69.82;66.53;;;;;;;19.72;57.64;100226.75;4983725;28;20442;-74
2023/08/06 00:41:44;;;;;;;69.22;65.97;;;;;;;19.73;57.42;100225.63;5002797;28;20519;-73
2023/08/06 00:44:09;;;;;;;68.72;65.32;;;;;;;19.72;57.37;100221.25;4979868;28;20043;-73
2023/08/06 00:46:35;;;;;;;65.97;62.78;;;;;;;19.71;57.76;100216.13;4985965;28;20121;-74
2023/08/06 00:49:00;;;;;;;66.65;63.28;;;;;;;19.71;57.58;100222.41;4985610;28;20120;-74
2023/08/06 00:51:27;;;;;;;64.53;61.53;;;;;;;19.70;57.52;100217.22;4985967;28;20477;-73
2023/08/06 00:53:52;;;;;;;65.78;62.63;;;;;;;19.70;57.29;100214.47;4986122;28;20081;-73
2023/08/06 00:56:19;;;;;;;70.10;66.40;;;;;;;19.68;57.32;100217.56;4985623;28;20039;-74
2023/08/06 00:58:46;;;;;;;67.40;63.80;;;;;;;19.69;57.16;100221.09;4982797;28;20054;-73
2023/08/06 01:01:11;;;;;;;69.13;65.50;;;;;;;19.67;57.46;100229.63;4986617;28;20078;-73
2023/08/06 01:03:36;;;;;;;65.93;62.83;;;;;;;19.67;57.60;100210.44;4984411;28;20042;-73
2023/08/06 01:06:02;;;;;;;67.93;64.70;;;;;;;19.66;57.28;100208.81;4981955;28;20038;-74
2023/08/06 01:08:38;;;;;;;68.82;65.53;;;;;;;19.64;57.63;100213.78;4984920;28;20375;-73
2023/08/06 01:11:29;;;;;;;66.90;63.70;;;;;;;19.65;57.35;100213.50;4986437;28;20042;-73
2023/08/06 01:14:02;;;;;;;67.45;64.13;;;;;;;19.64;57.49;100205.56;4982700;28;20030;-73
2023/08/06 01:16:29;;;;;;;65.25;62.05;;;;;;;19.63;57.54;100217.63;4988405;28;20482;-73
2023/08/06 01:18:54;;;;;;;64.65;61.55;;;;;;;19.62;57.69;100210.56;4985057;28;20126;-73
2023/08/06 01:21:20;;;;;;;71.20;67.80;;;;;;;19.62;57.65;100210.56;4982948;28;20141;-73
2023/08/06 01:23:47;;;;;;;69.22;65.82;;;;;;;19.61;57.59;100208.94;4988442;28;20038;-73
2023/08/06 01:26:32;;;;;;;66.82;63.63;;;;;;;19.61;57.71;100222.66;4983819;28;20097;-73
2023/08/06 01:29:13;;;;;;;65.93;62.53;;;;;;;19.61;57.69;100217.97;4984722;28;20038;-73
2023/08/06 01:31:41;;;;;;;66.15;62.80;;;;;;;19.59;57.80;100222.16;4987088;28;20471;-73
2023/08/06 01:34:12;;;;;;;66.15;63.05;;;;;;;19.58;57.42;100210.41;4986004;28;20035;-73
2023/08/06 01:36:38;;;;;;;67.75;64.55;;;;;;;19.57;57.41;100216.97;4987243;28;20034;-73
2023/08/06 01:39:05;;;;;;;65.75;62.67;;;;;;;19.57;57.33;100219.72;4987503;28;20038;-73
2023/08/06 01:41:30;;;;;;;65.43;62.33;;;;;;;19.57;57.36;100219.72;4983018;28;20046;-73
2023/08/06 01:43:55;;;;;;;65.38;62.28;;;;;;;19.57;57.62;100221.66;4989043;28;20061;-73
2023/08/06 01:46:21;;;;;;;68.35;63.60;;;;;;;19.56;57.42;100231.00;4989344;28;20529;-73
2023/08/06 01:48:46;;;;;;;66.07;62.88;;;;;;;19.55;57.41;100219.22;4984352;28;20047;-73
2023/08/06 01:51:11;;;;;;;66.93;63.50;;;;;;;19.55;57.38;100219.22;4986088;28;21805;-74
2023/08/06 01:53:37;;;;;;;64.82;61.83;;;;;;;19.54;57.54;100214.88;4989210;28;20037;-73
2023/08/06 01:56:02;;;;;;;63.63;60.63;;;;;;;19.54;57.91;100219.56;4985384;28;20038;-73
2023/08/06 01:58:28;;;;;;;66.32;63.13;;;;;;;19.54;57.35;100212.13;4985779;28;20034;-73
2023/08/06 02:00:53;;;;;;;63.80;60.80;;;;;;;19.52;57.78;100205.34;4987580;28;20113;-73
2023/08/06 02:03:18;;;;;;;70.45;66.97;;;;;;;19.51;57.87;100207.28;4989230;28;20046;-73
2023/08/06 02:05:45;;;;;;;64.80;61.42;;;;;;;19.51;57.74;100210.03;4988345;28;20041;-73
2023/08/06 02:08:11;;;;;;;64.95;61.85;;;;;;;19.51;57.46;100214.72;5005109;28;20042;-73
2023/08/06 02:10:36;;;;;;;66.35;63.05;;;;;;;19.51;57.37;100214.72;4988835;28;20037;-73
2023/08/06 02:13:01;;;;;;;68.30;64.82;;;;;;;19.51;57.39;100214.72;4985783;28;20034;-73
2023/08/06 02:15:27;;;;;;;66.15;63.03;;;;;;;19.49;57.71;100216.94;4990059;28;20524;-73
2023/08/06 02:17:53;;;;;;;66.15;62.88;;;;;;;19.48;57.58;100221.63;4984248;28;20055;-73
2023/08/06 02:20:19;;;;;;;68.05;64.65;;;;;;;19.48;57.53;100227.09;4986744;28;20042;-73
2023/08/06 02:22:44;;;;;;;65.95;62.55;;;;;;;19.47;57.43;100228.22;4985818;28;20121;-73
2023/08/06 02:25:09;;;;;;;67.03;63.83;;;;;;;19.48;57.57;100223.53;4988369;28;20038;-73
2023/08/06 02:27:35;;;;;;;62.88;59.72;;;;;;;19.47;57.73;100222.72;4988676;28;20733;-73
2023/08/06 02:30:01;;;;;;;65.25;62.15;;;;;;;19.46;58.04;100224.66;4988171;28;20030;-73
2023/08/06 02:32:26;;;;;;;70.72;67.20;;;;;;;19.46;57.96;100229.34;5001446;28;20423;-74
2023/08/06 02:34:51;;;;;;;65.78;62.63;;;;;;;19.46;57.74;100226.59;4987085;28;20479;-73
2023/08/06 02:37:17;;;;;;;65.95;62.55;;;;;;;19.44;57.92;100226.91;4988501;28;20046;-74
2023/08/06 02:39:43;;;;;;;63.67;60.58;;;;;;;19.44;58.04;100224.16;4987299;28;20050;-73
2023/08/06 02:42:08;;;;;;;62.60;59.65;;;;;;;19.44;57.80;100226.09;4988190;28;20030;-73
2023/08/06 02:44:35;;;;;;;64.75;61.42;;;;;;;19.43;57.58;100225.31;4985982;28;20030;-73
2023/08/06 02:47:00;;;;;;;68.80;65.50;;;;;;;19.42;57.83;100218.19;4988148;28;20038;-73
2023/08/06 02:49:26;;;;;;;67.50;64.07;;;;;;;19.42;57.59;100222.88;4984424;28;20836;-73
2023/08/06 02:51:52;;;;;;;64.28;61.28;;;;;;;19.42;57.88;100222.88;4990502;28;20026;-73
2023/08/06 02:54:18;;;;;;;65.25;62.13;;;;;;;19.40;58.01;100220.47;4983965;28;20041;-74
2023/08/06 02:56:44;;;;;;;64.97;61.58;;;;;;;19.40;57.71;100222.38;4985823;28;20447;-73
2023/08/06 02:59:10;;;;;;;67.32;64.13;;;;;;;19.40;57.53;100216.91;4990774;28;20031;-73
2023/08/06 03:01:36;;;;;;;66.68;63.53;;;;;;;19.39;57.77;100216.09;4983260;28;20085;-72
2023/08/06 03:04:01;;;;;;;64.13;61.03;;;;;;;19.39;58.04;100221.56;4987147;28;20031;-73
2023/08/06 03:06:27;;;;;;;68.38;64.65;;;;;;;19.38;57.96;100214.50;4986694;28;20038;-73
2023/08/06 03:08:52;;;;;;;68.25;64.75;;;;;;;19.39;57.61;100221.56;4988729;28;20058;-73
2023/08/06 03:11:17;;;;;;;66.45;63.10;;;;;;;19.37;57.96;100228.47;4986119;28;20042;-73
2023/08/06 03:13:43;;;;;;;63.63;60.47;;;;;;;19.36;57.92;100216.72;4988785;28;20506;-73
2023/08/06 03:16:08;;;;;;;64.95;61.85;;;;;;;19.37;57.85;100223.00;4988108;28;20049;-72
2023/08/06 03:18:34;;;;;;;65.25;61.95;;;;;;;19.36;57.55;100221.41;4987493;28;20805;-72
2023/08/06 03:20:59;;;;;;;68.82;65.45;;;;;;;19.35;57.59;100220.59;4987020;28;20118;-72
2023/08/06 03:23:24;;;;;;;66.60;63.22;;;;;;;19.35;57.49;100223.34;4986439;28;20046;-72
2023/08/06 03:25:50;;;;;;;67.50;64.00;;;;;;;19.35;57.79;100225.25;5002257;28;20510;-73
2023/08/06 03:28:16;;;;;;;64.88;61.47;;;;;;;19.34;57.69;100224.44;4985949;28;20493;-73
2023/08/06 03:30:41;;;;;;;68.88;65.35;;;;;;;19.33;57.96;100228.31;4984636;28;20038;-72
2023/08/06 03:33:07;;;;;;;65.38;62.28;;;;;;;19.33;58.08;100225.56;4988292;28;20037;-72
2023/08/06 03:35:32;;;;;;;66.50;63.15;;;;;;;19.32;58.22;100226.69;4986471;28;20822;-73
2023/08/06 03:37:57;;;;;;;64.95;61.28;;;;;;;19.33;58.06;100231.06;4988653;28;20041;-72
2023/08/06 03:40:23;;;;;;;65.82;62.53;;;;;;;19.33;58.11;100233.00;4986176;28;20053;-73
2023/08/06 03:42:48;;;;;;;65.13;61.90;;;;;;;19.33;57.85;100233.00;4984603;28;20038;-73
2023/08/06 03:45:14;;;;;;;66.20;62.90;;;;;;;19.32;58.31;100232.16;4983945;28;20046;-72
2023/08/06 03:47:39;;;;;;;66.82;63.63;;;;;;;19.32;57.99;100237.63;4971501;28;20613;-72
2023/08/06 03:50:05;;;;;;;69.53;66.22;;;;;;;19.31;58.30;100237.97;4987260;28;20489;-72
2023/08/06 03:52:31;;;;;;;68.00;64.50;;;;;;;19.31;58.20;100235.22;4983531;28;20125;-73
2023/08/06 03:54:56;;;;;;;67.43;64.03;;;;;;;19.30;57.89;100231.66;4987788;28;20114;-72
2023/08/06 03:57:21;;;;;;;65.68;62.45;;;;;;;19.30;58.25;100234.41;4988656;28;20105;-73
2023/08/06 03:59:47;;;;;;;62.88;59.67;;;;;;;19.30;57.95;100233.59;4985660;28;20042;-72
2023/08/06 04:02:12;;;;;;;65.65;62.45;;;;;;;19.29;57.82;100241.00;4988336;28;20364;-72
2023/08/06 04:04:37;;;;;;;66.35;63.05;;;;;;;19.29;58.23;100237.47;4980953;28;20030;-73
2023/08/06 04:07:03;;;;;;;65.70;62.35;;;;;;;19.29;58.12;100242.94;4987667;28;20045;-72
2023/08/06 04:09:29;;;;;;;65.25;62.03;;;;;;;19.29;58.07;100248.41;4984762;28;20042;-72
2023/08/06 04:11:54;;;;;;;64.60;61.40;;;;;;;19.28;58.32;100246.78;4986224;28;20034;-72
2023/08/06 04:14:20;;;;;;;64.22;60.20;;;;;;;19.27;58.38;100251.47;4985814;28;20097;-73
2023/08/06 04:16:45;;;;;;;63.58;60.38;;;;;;;19.27;57.90;100247.91;4987641;28;20054;-72
2023/08/06 04:19:11;;;;;;;64.20;60.95;;;;;;;19.27;57.88;100254.19;4984329;28;20446;-72
2023/08/06 04:21:36;;;;;;;66.72;63.33;;;;;;;19.26;58.05;100249.06;4987662;28;20047;-72
2023/08/06 04:24:01;;;;;;;63.88;60.78;;;;;;;19.25;57.87;100253.69;5000954;28;20522;-72
2023/08/06 04:26:27;;;;;;;64.20;60.70;;;;;;;19.25;57.92;100250.97;4985627;28;20046;-73
2023/08/06 04:28:52;;;;;;;65.95;62.70;;;;;;;19.24;57.86;100250.16;4987482;28;20447;-72
2023/08/06 04:31:18;;;;;;;64.47;61.28;;;;;;;19.24;58.28;100258.38;4986295;28;20077;-73
2023/08/06 04:33:43;;;;;;;64.65;61.28;;;;;;;19.25;58.26;100256.44;4985217;28;20617;-72
2023/08/06 04:36:09;;;;;;;62.15;59.10;;;;;;;19.23;57.93;100255.97;4985829;28;20467;-72
2023/08/06 04:38:34;;;;;;;64.38;61.15;;;;;;;19.24;58.25;100263.03;4988382;28;20116;-73
2023/08/06 04:41:01;;;;;;;65.45;62.25;;;;;;;19.22;57.98;100268.81;4983433;28;20050;-72
2023/08/06 04:43:27;;;;;;;65.40;62.05;;;;;;;19.23;57.95;100275.13;4987172;28;20057;-73
2023/08/06 04:45:54;;;;;;;63.88;60.70;;;;;;;19.23;58.07;100272.38;4984813;28;20121;-72
2023/08/06 04:48:19;;;;;;;61.40;58.13;;;;;;;19.22;58.36;100279.78;4985577;28;20034;-72
2023/08/06 04:50:45;;;;;;;63.97;60.88;;;;;;;19.21;58.25;100275.44;4983366;28;20093;-72
2023/08/06 04:53:11;;;;;;;65.97;62.70;;;;;;;19.20;58.07;100275.72;4986396;28;20463;-72
2023/08/06 04:55:36;;;;;;;65.70;62.40;;;;;;;19.21;58.23;100278.16;4987315;28;20044;-73
2023/08/06 04:58:02;;;;;;;63.22;60.10;;;;;;;19.20;57.97;100281.22;4983802;28;20050;-72
2023/08/06 05:00:27;;;;;;;64.15;60.90;;;;;;;19.20;57.83;100278.47;4983461;28;20526;-74
2023/08/06 05:02:53;;;;;;;62.08;59.08;;;;;;;19.20;58.31;100278.47;5001718;28;20046;-73
2023/08/06 05:05:18;;;;;;;63.28;60.22;;;;;;;19.20;58.11;100283.94;4986739;28;20034;-73
2023/08/06 05:07:48;;;;;;;64.43;61.33;;;;;;;19.19;57.76;100282.34;4982611;28;20034;-73
2023/08/06 05:10:14;;;;;;;63.15;60.10;;;;;;;19.18;58.26;100284.28;4986286;28;20085;-73
2023/08/06 05:12:39;;;;;;;67.07;63.88;;;;;;;19.18;58.18;100287.00;4986330;28;20038;-72
2023/08/06 05:15:05;;;;;;;64.03;60.97;;;;;;;19.18;58.18;100280.72;4987256;28;20035;-72
2023/08/06 05:17:30;;;;;;;63.90;60.40;;;;;;;19.17;58.25;100287.31;4985947;28;20193;-73
2023/08/06 05:19:55;;;;;;;63.53;60.53;;;;;;;19.16;58.16;100294.72;4986289;28;20042;-72
2023/08/06 05:22:21;;;;;;;63.08;59.97;;;;;;;19.16;57.76;100289.25;4985992;28;20401;-72
2023/08/06 05:24:46;;;;;;;62.85;59.85;;;;;;;19.16;57.97;100308.41;4986474;28;20041;-74
2023/08/06 05:27:12;;;;;;;64.78;61.47;;;;;;;19.16;58.14;100311.16;4991801;28;20420;-73
2023/08/06 05:29:37;;;;;;;64.32;61.33;;;;;;;19.16;57.77;100318.56;4991686;28;20046;-73
2023/08/06 05:32:03;;;;;;;61.65;58.65;;;;;;;19.15;57.60;100315.03;4989256;28;20043;-73
2023/08/06 05:34:29;;;;;;;60.75;57.75;;;;;;;19.15;58.05;100325.13;4988285;28;20035;-73
2023/08/06 05:36:54;;;;;;;63.78;60.75;;;;;;;19.15;57.60;100336.91;4990189;28;20035;-73
2023/08/06 05:39:19;;;;;;;60.47;57.58;;;;;;;19.15;57.70;100338.81;4988552;28;20125;-73
2023/08/06 05:41:45;;;;;;;67.25;63.95;;;;;;;19.14;57.86;100348.97;4987273;28;20034;-73
2023/08/06 05:44:10;;;;;;;64.90;61.90;;;;;;;19.14;57.59;100350.91;4989741;28;20453;-73
2023/08/06 05:46:36;;;;;;;62.75;59.83;;;;;;;19.12;57.54;100369.56;4987698;28;20117;-73
2023/08/06 05:49:01;;;;;;;61.17;58.38;;;;;;;19.09;57.92;100383.88;4988375;28;20522;-72
2023/08/06 05:51:27;;;;;;;63.00;60.10;;;;;;;19.08;57.65;100387.75;4989861;28;20833;-72
2023/08/06 05:53:52;;;;;;;62.85;59.95;;;;;;;19.04;57.95;100395.75;4983761;28;20049;-72
2023/08/06 05:56:18;;;;;;;62.20;59.40;;;;;;;19.02;57.53;100404.28;4986696;28;20046;-72
2023/08/06 05:58:43;;;;;;;63.38;60.38;;;;;;;19.01;57.62;100402.66;4988485;28;20113;-72
2023/08/06 06:01:08;;;;;;;62.75;59.85;;;;;;;19.00;57.95;100401.03;4987294;28;20043;-71
2023/08/06 06:03:34;;;;;;;65.07;62.05;;;;;;;18.99;57.61;100412.28;4988248;28;20049;-71
2023/08/06 06:06:01;;;;;;;62.95;60.05;;;;;;;18.97;57.62;100403.56;4986809;28;20049;-70
2023/08/06 06:08:26;;;;;;;61.97;59.08;;;;;;;18.98;57.69;100414.22;4988728;28;20042;-71
2023/08/06 06:10:51;;;;;;;62.53;59.63;;;;;;;18.97;57.80;100409.84;4989782;28;20069;-71
2023/08/06 06:13:17;;;;;;;63.17;60.17;;;;;;;18.96;57.88;100416.44;4991310;28;20113;-71
2023/08/06 06:15:42;;;;;;;64.72;61.65;;;;;;;18.96;58.03;100412.91;4987037;28;20042;-72
2023/08/06 06:18:08;;;;;;;60.95;58.15;;;;;;;18.96;57.73;100416.44;4984653;28;20070;-71
2023/08/06 06:20:33;;;;;;;60.67;57.85;;;;;;;18.94;57.73;100424.16;4986522;28;20134;-71
2023/08/06 06:22:59;;;;;;;61.70;58.85;;;;;;;18.94;58.04;100432.34;4985185;28;20105;-70
2023/08/06 06:25:24;;;;;;;60.45;57.65;;;;;;;18.94;57.47;100439.75;4988167;28;20538;-71
2023/08/06 06:27:50;;;;;;;61.72;58.80;;;;;;;18.92;57.84;100442.78;4987363;28;20132;-72
2023/08/06 06:30:15;;;;;;;62.33;59.42;;;;;;;18.92;57.77;100437.31;4988465;28;20129;-72
2023/08/06 06:32:41;;;;;;;62.58;59.45;;;;;;;18.92;57.66;100442.78;4984621;28;20404;-72
2023/08/06 06:35:07;;;;;;;63.88;60.85;;;;;;;18.92;57.69;100442.78;5003787;28;20065;-72
2023/08/06 06:37:32;;;;;;;62.47;59.53;;;;;;;18.91;57.63;100457.59;4989333;28;20034;-71
2023/08/06 06:39:58;;;;;;;60.97;58.17;;;;;;;18.91;57.71;100454.06;4986285;28;20097;-72
2023/08/06 06:42:23;;;;;;;62.40;59.20;;;;;;;18.89;57.87;100468.03;4985227;28;20066;-72
2023/08/06 06:44:48;;;;;;;64.13;61.00;;;;;;;18.88;58.11;100465.63;4990172;28;20029;-72
2023/08/06 06:47:14;;;;;;;64.93;61.72;;;;;;;18.88;57.79;100471.91;4987280;28;20027;-72
2023/08/06 06:49:39;;;;;;;63.45;60.35;;;;;;;18.87;57.91;100464.00;4983679;28;20030;-72
2023/08/06 06:52:05;;;;;;;60.17;57.33;;;;;;;18.86;58.13;100468.66;4987597;28;20041;-71
2023/08/06 06:54:31;;;;;;;60.60;57.80;;;;;;;18.86;57.79;100482.34;4987145;28;20022;-72
2023/08/06 06:56:56;;;;;;;61.03;58.13;;;;;;;18.84;57.71;100472.81;4986230;28;20453;-72
2023/08/06 06:59:21;;;;;;;62.65;59.55;;;;;;;18.83;58.26;100482.97;4983168;28;20049;-71
2023/08/06 07:01:47;;;;;;;62.55;59.25;;;;;;;18.82;58.23;100484.06;4986343;28;20043;-72
2023/08/06 07:04:12;;;;;;;62.45;58.85;;;;;;;18.81;57.89;100486.00;4986651;28;20046;-72
2023/08/06 07:06:38;;;;;;;63.88;60.58;;;;;;;18.81;58.12;100490.66;4986160;28;20042;-71
2023/08/06 07:09:03;;;;;;;62.58;59.47;;;;;;;18.81;58.06;100490.66;4985201;28;20057;-72
2023/08/06 07:11:28;;;;;;;63.00;59.78;;;;;;;18.80;58.21;100486.31;4985951;28;20360;-72
2023/08/06 07:14:01;;;;;;;62.72;59.70;;;;;;;18.79;58.14;100499.16;4988327;28;20038;-71
2023/08/06 07:16:27;;;;;;;62.80;59.75;;;;;;;18.79;57.73;100495.63;4983087;28;20105;-72
2023/08/06 07:18:53;;;;;;;63.35;60.00;;;;;;;18.78;57.66;100492.06;4987224;28;20042;-71
2023/08/06 07:21:19;;;;;;;63.53;60.45;;;;;;;18.78;58.07;100500.28;4986321;28;20038;-72
2023/08/06 07:23:45;;;;;;;60.33;57.40;;;;;;;18.78;58.04;100499.47;4986968;28;20157;-72
2023/08/06 07:26:11;;;;;;;62.05;59.08;;;;;;;18.77;57.96;100517.00;4988952;28;20041;-71
2023/08/06 07:28:36;;;;;;;64.88;61.75;;;;;;;18.76;58.14;100513.44;4989005;28;20034;-71
2023/08/06 07:31:03;;;;;;;60.05;57.15;;;;;;;18.75;58.21;100521.94;4983045;28;20038;-71
2023/08/06 07:33:28;;;;;;;62.95;60.00;;;;;;;18.74;58.23;100525.78;4985096;28;20073;-71
2023/08/06 07:35:54;;;;;;;62.20;59.20;;;;;;;18.73;57.92;100533.19;4984929;28;20034;-71
2023/08/06 07:38:19;;;;;;;59.78;56.78;;;;;;;18.72;58.26;100531.56;4989015;28;20042;-72
2023/08/06 07:40:45;;;;;;;64.28;61.20;;;;;;;18.73;58.09;100535.13;4981707;28;20053;-72
2023/08/06 07:43:10;;;;;;;61.80;58.95;;;;;;;18.73;58.11;100538.66;4982696;28;20109;-71
2023/08/06 07:45:36;;;;;;;59.22;56.50;;;;;;;18.71;58.20;100534.59;4985997;28;20118;-71
2023/08/06 07:48:02;;;;;;;61.67;58.47;;;;;;;18.70;58.11;100546.66;4983755;28;20093;-71
2023/08/06 07:50:28;;;;;;;61.65;58.47;;;;;;;18.70;57.99;100549.41;4988613;28;20034;-71
2023/08/06 07:52:53;;;;;;;62.30;59.30;;;;;;;18.69;58.04;100555.97;4985724;28;20064;-71
2023/08/06 07:55:18;;;;;;;59.75;56.88;;;;;;;18.69;58.29;100559.50;4986784;28;20046;-71
2023/08/06 07:57:44;;;;;;;59.72;56.67;;;;;;;18.68;57.79;100557.91;4984745;28;20386;-73
2023/08/06 08:00:09;;;;;;;59.20;56.47;;;;;;;18.69;58.09;100561.44;4984246;28;20046;-71
2023/08/06 08:02:35;;;;;;;60.90;58.13;;;;;;;18.68;58.19;100560.63;4985450;28;20027;-71
2023/08/06 08:05:00;;;;;;;63.88;60.78;;;;;;;18.68;58.37;100568.03;4983849;28;20046;-72
2023/08/06 08:07:28;;;;;;;62.30;58.95;;;;;;;18.67;57.84;100569.13;4986397;28;20077;-71
2023/08/06 08:09:53;;;;;;;63.40;60.33;;;;;;;18.66;58.00;100565.59;4987979;28;20402;-71
2023/08/06 08:12:19;;;;;;;59.08;56.28;;;;;;;18.66;58.37;100567.53;4986983;28;20546;-73
2023/08/06 08:14:45;;;;;;;61.20;58.30;;;;;;;18.65;57.95;100568.63;4986416;28;20034;-71
2023/08/06 08:17:11;;;;;;;61.58;58.55;;;;;;;18.65;57.99;100571.34;4985004;28;20079;-72
2023/08/06 08:19:37;;;;;;;64.15;61.25;;;;;;;18.65;58.12;100568.63;4990231;28;20069;-72
2023/08/06 08:22:03;;;;;;;61.45;58.55;;;;;;;18.66;57.84;100573.00;4987908;28;20034;-72
2023/08/06 08:24:30;;;;;;;61.05;57.95;;;;;;;18.64;58.18;100573.28;4985783;28;20113;-72
2023/08/06 08:26:56;;;;;;;59.63;56.28;;;;;;;18.65;57.96;100576.81;4982485;28;20399;-73
2023/08/06 08:29:22;;;;;;;61.13;57.83;;;;;;;18.65;58.16;100576.81;4987445;28;20044;-73
2023/08/06 08:31:51;;;;;;;59.75;56.95;;;;;;;18.64;58.15;100569.75;4986023;28;20088;-74
2023/08/06 08:34:16;;;;;;;;;;;;;;;18.63;58.17;100574.41;4986679;28;20038;-73
2023/08/06 08:36:42;;;;;;;;;;;;;;;18.63;57.94;100581.81;4985981;28;19922;-73
2023/08/06 08:39:07;;;;;;;;;;;;;;;18.63;58.00;100576.34;4987437;28;20015;-73
2023/08/06 08:41:33;;;;;;;;;;;;;;;18.63;58.32;100582.63;4984009;28;20017;-73
2023/08/06 08:44:00;;;;;;;;;;;;;;;18.63;58.07;100582.63;4984675;28;19950;-73
2023/08/06 08:46:26;;;;;;;;;;;;;;;18.63;57.99;100585.34;4988726;28;20376;-73
2023/08/06 08:48:51;;;;;;;;;;;;;;;18.65;57.99;100590.50;4989708;28;19918;-73
2023/08/06 08:51:16;;;;;;;;;;;;;;;18.64;57.97;100589.72;4990224;28;20420;-72
2023/08/06 08:53:43;;;;;;;;;;;;;;;18.64;58.24;100594.38;4992675;28;19928;-73
2023/08/06 08:56:10;;;;;;;;;;;;;;;18.64;58.13;100589.72;5008241;28;19957;-72
2023/08/06 08:58:35;;;;;;;;;;;;;;;18.64;58.23;100592.44;4982494;28;19968;-73
2023/08/06 09:01:01;;;;;;;;;;;;;;;18.64;57.99;100597.91;4976499;28;19963;-73
2023/08/06 09:03:26;;;;;;;;;;;;;;;18.63;58.00;100599.03;4992754;28;20287;-73
2023/08/06 09:05:54;;;;;;;;;;;;;;;18.63;57.83;100596.31;4993252;28;19929;-74
2023/08/06 09:08:23;;;;;;;;;;;;;;;18.64;58.10;100599.84;4993932;28;19925;-73
2023/08/06 09:10:48;;;;;;;;;;;;;;;18.63;57.93;100603.69;4981338;28;19914;-73
2023/08/06 09:13:14;;;;;;;;;;;;;;;18.62;58.19;100605.59;4984099;28;19947;-73
2023/08/06 09:15:39;;;;;;;;;;;;;;;18.64;58.11;100608.06;4986880;28;19929;-73
2023/08/06 09:18:11;;;;;;;;;;;;;;;18.64;58.00;100613.53;4993482;28;20382;-72
2023/08/06 09:20:37;;;;;;;;;;;;;;;18.63;57.99;100606.44;5012543;28;20393;-73
2023/08/06 09:23:09;;;;;;;;;;;;;;;18.62;58.03;100611.06;4989443;28;19936;-72
2023/08/06 09:25:37;;;;;;;;;;;;;;;18.63;58.08;100620.13;4990829;28;19922;-71
2023/08/06 09:28:02;;;;;;;;;;;;;;;18.62;58.13;100624.75;4991397;28;19922;-72
2023/08/06 09:30:32;;;;;;;;;;;;;;;18.63;57.85;100625.59;4993939;28;20396;-72
2023/08/06 09:32:58;;;;;;;;;;;;;;;18.62;58.19;100632.97;4991751;28;19926;-65
2023/08/06 09:35:23;;;;;;;;;;;;;;;18.62;58.55;100627.47;4987244;28;19945;-72
2023/08/06 09:37:48;;;;;;;;;;;;;;;18.63;58.66;100637.34;4991910;28;19917;-81
2023/08/06 09:40:40;;;;;;;;;;;;;;;18.65;58.63;100639.75;4989703;28;20036;-72
2023/08/06 09:43:06;;;;;;;;;;;;;;;18.65;58.70;100643.31;4989875;28;20016;-72
2023/08/06 09:45:32;;;;;;;;;;;;;;;18.64;58.63;100641.69;4992236;28;20012;-72
2023/08/06 09:47:58;;;;;;;;;;;;;;;18.65;58.65;100646.06;4991186;28;20443;-72
2023/08/06 09:50:28;;;;;;;;;;;;;;;18.65;58.53;100645.22;5013778;28;19918;-72
2023/08/06 09:52:54;;;;;;;;;;;;;;;18.64;58.23;100644.41;4979711;28;19948;-72
2023/08/06 09:55:21;;;;;;;;;;;;;;;18.65;58.30;100647.97;4986291;28;19917;-72
2023/08/06 09:57:47;;;;;;;;;;;;;;;18.65;58.08;100654.28;4981668;28;19922;-72
2023/08/06 10:00:13;;;;;;;;;;;;;;;18.65;58.38;100653.44;4991908;28;19922;-72
2023/08/06 10:02:41;;;;;;;;;;;;;;;18.65;58.18;100650.69;4986099;28;19962;-72
2023/08/06 10:05:09;;;;;;;;;;;;;;;18.66;58.45;100652.34;4988903;28;19918;-73
2023/08/06 10:07:35;;;;;;;;;;;;;;;18.65;58.21;100653.44;4989285;28;20052;-72
2023/08/06 10:10:01;;;;;;;;;;;;;;;18.66;58.26;100660.53;4992389;28;20016;-72
2023/08/06 10:12:28;;;;;;;;;;;;;;;18.65;58.12;100665.22;4985664;28;20413;-73
2023/08/06 10:14:55;;;;;;;;;;;;;;;18.65;58.40;100659.75;4992634;28;20380;-73
2023/08/06 10:17:22;;;;;;;;;;;;;;;18.66;58.05;100668.75;4989346;28;19928;-72
2023/08/06 10:19:48;;;;;;;;;;;;;;;18.66;58.03;100674.22;4990068;28;19921;-72
2023/08/06 10:22:19;;;;;;;;;;;;;;;18.65;58.29;100667.94;4990269;28;19928;-72
2023/08/06 10:24:51;;;;;;;;;;;;;;;18.66;58.02;100669.56;4991711;28;19925;-72
2023/08/06 10:27:19;;;;;;;;;;;;;;;18.67;58.04;100670.38;4985605;28;19924;-77
2023/08/06 10:29:45;;;;;;;;;;;;;;;18.66;58.23;100672.28;4983713;28;19918;-69
2023/08/06 10:32:10;;;;;;;;;;;;;;;18.65;58.44;100678.88;4986291;28;19929;-71
2023/08/06 10:34:55;;;;;;;;;;;;;;;18.66;58.62;100674.22;4985391;28;19921;-70
2023/08/06 10:37:20;;;;;;;;;;;;;;;18.67;58.89;100678.56;4977094;28;19918;-71
2023/08/06 10:39:52;;;;;;;;;;;;;;;18.67;59.00;100681.31;4989965;28;19997;-69
2023/08/06 10:42:21;;;;;;;;;;;;;;;18.66;59.31;100677.78;4990672;28;20389;-68
2023/08/06 10:45:05;;;;;;;;;;;;;;;18.68;59.23;100685.69;4989803;28;20008;-70
2023/08/06 10:47:37;;;;;;;;;;;;;;;18.70;59.52;100691.69;4985134;28;19967;-70
2023/08/06 10:50:03;;;;;;;;;;;;;;;18.72;59.41;100687.53;4976050;28;20381;-74
2023/08/06 10:52:28;;;;;;;;;;;;;;;18.72;59.30;100687.53;4988537;28;19956;-71
2023/08/06 10:54:55;;;;;;;;;;;;;;;18.73;59.62;100689.16;4986323;28;19921;-72
2023/08/06 10:57:20;;;;;;;;;;;;;;;18.74;59.20;100689.97;4979463;28;20020;-72
2023/08/06 10:59:45;;;;;;;;;;;;;;;18.73;59.71;100689.16;4982917;28;20020;-73
2023/08/06 11:02:10;;;;;;;;;;;;;;;18.76;59.51;100687.78;4992614;28;19921;-74
2023/08/06 11:04:36;;;;;;;;;;;;;;;18.78;59.63;100697.31;4996589;28;20377;-73
2023/08/06 11:07:01;;;;;;;;;;;;;;;18.79;59.81;100696.19;4989367;28;19957;-69
2023/08/06 11:09:26;;;;;;;;;;;;;;;18.81;59.56;100698.63;4991027;28;19921;-69
2023/08/06 11:11:51;;;;;;;;;;;;;;;18.81;59.49;100693.97;4985649;28;19957;-70
2023/08/06 11:14:17;;;;;;;;;;;;;;;18.83;59.94;100698.34;4990272;28;19922;-70
2023/08/06 11:16:42;;;;;;;;;;;;;;;18.84;59.99;100700.75;4990283;28;19921;-69
2023/08/06 11:19:08;;;;;;;;;;;;;;;18.84;59.60;100708.97;5008850;28;20349;-70
2023/08/06 11:21:33;;;;;;;;;;;;;;;18.85;60.12;100696.09;4984497;28;20120;-75
2023/08/06 11:23:59;;;;;;;;;;;;;;;18.88;59.93;100695.53;4986806;28;19925;-76